Time,TemperatureF,DewpointF,PressureIn,WindDirection,WindDirectionDegrees,WindSpeedMPH,WindSpeedGustMPH,Humidity,HourlyPrecipIn,Conditions,Clouds,dailyrainin,SolarRadiationWatts/m^2,SoftwareType,DateUTC
2013-06-12 00:00:00,42.0,42.0,-100.00,SSW,211,9.0,17.0,100,0.00,,,0.17,0.000000,,2013-06-12 07:00:00,
2013-06-12 00:22:00,42.0,42.0,-100.00,SSW,211,9.0,17.0,100,0.00,,,0.17,0.000000,,2013-06-12 07:22:00,
2013-06-12 00:33:00,42.0,42.0,-100.00,SSW,211,9.0,17.0,100,0.00,,,0.17,0.000000,,2013-06-12 07:33:00,
2013-06-12 00:43:00,42.0,42.0,-100.00,SSW,211,9.0,17.0,100,0.00,,,0.17,0.000000,,2013-06-12 07:43:00,
2013-06-12 00:53:00,42.0,42.0,-100.00,SSW,211,9.0,17.0,100,0.00,,,0.17,0.000000,,2013-06-12 07:53:00,
2013-06-12 01:00:00,44.0,44.0,-100.00,SSW,208,7.0,14.0,100,0.02,,,0.19,0.000000,,2013-06-12 08:00:00,
2013-06-12 01:33:00,44.0,44.0,-100.00,SSW,208,7.0,14.0,100,0.02,,,0.19,0.000000,,2013-06-12 08:33:00,
2013-06-12 01:43:00,44.0,44.0,-100.00,SSW,208,7.0,14.0,100,0.02,,,0.19,0.000000,,2013-06-12 08:43:00,
2013-06-12 01:53:00,44.0,44.0,-100.00,SSW,208,7.0,14.0,100,0.02,,,0.19,0.000000,,2013-06-12 08:53:00,
2013-06-12 02:00:00,44.0,44.0,-100.00,SSW,205,8.0,14.0,100,0.00,,,0.19,0.000000,,2013-06-12 09:00:00,
2013-06-12 02:22:00,44.0,44.0,-100.00,SSW,205,8.0,14.0,100,0.00,,,0.19,0.000000,,2013-06-12 09:22:00,
2013-06-12 02:33:00,44.0,44.0,-100.00,SSW,205,8.0,14.0,100,0.00,,,0.19,0.000000,,2013-06-12 09:33:00,
2013-06-12 02:43:00,44.0,44.0,-100.00,SSW,205,8.0,14.0,100,0.00,,,0.19,0.000000,,2013-06-12 09:43:00,
2013-06-12 02:53:00,44.0,44.0,-100.00,SSW,205,8.0,14.0,100,0.00,,,0.19,0.000000,,2013-06-12 09:53:00,
2013-06-12 03:00:00,44.0,44.0,-100.00,SSW,208,9.0,15.0,100,0.03,,,0.22,0.000000,,2013-06-12 10:00:00,
2013-06-12 03:33:00,44.0,44.0,-100.00,SSW,208,9.0,15.0,100,0.03,,,0.22,0.000000,,2013-06-12 10:33:00,
2013-06-12 03:43:00,44.0,44.0,-100.00,SSW,208,9.0,15.0,100,0.03,,,0.22,0.000000,,2013-06-12 10:43:00,
2013-06-12 03:53:00,44.0,44.0,-100.00,SSW,208,9.0,15.0,100,0.03,,,0.22,0.000000,,2013-06-12 10:53:00,
2013-06-12 04:00:00,44.0,44.0,-100.00,SSW,210,10.0,19.0,100,0.01,,,0.23,0.000000,,2013-06-12 11:00:00,
2013-06-12 04:24:00,44.0,44.0,-100.00,SSW,210,10.0,19.0,100,0.01,,,0.23,0.000000,,2013-06-12 11:24:00,
2013-06-12 04:33:00,44.0,44.0,-100.00,SSW,210,10.0,19.0,100,0.01,,,0.23,0.000000,,2013-06-12 11:33:00,
2013-06-12 04:43:00,44.0,44.0,-100.00,SSW,210,10.0,19.0,100,0.01,,,0.23,0.000000,,2013-06-12 11:43:00,
2013-06-12 04:53:00,44.0,44.0,-100.00,SSW,210,10.0,19.0,100,0.01,,,0.23,0.000000,,2013-06-12 11:53:00,
2013-06-12 05:00:00,42.0,42.0,-100.00,SSW,207,11.0,18.0,100,0.04,,,0.27,0.000000,,2013-06-12 12:00:00,
2013-06-12 05:33:00,42.0,42.0,-100.00,SSW,207,11.0,18.0,100,0.04,,,0.27,0.000000,,2013-06-12 12:33:00,
2013-06-12 05:43:00,42.0,42.0,-100.00,SSW,207,11.0,18.0,100,0.04,,,0.27,0.000000,,2013-06-12 12:43:00,
2013-06-12 05:53:00,42.0,42.0,-100.00,SSW,207,11.0,18.0,100,0.04,,,0.27,0.000000,,2013-06-12 12:53:00,
2013-06-12 06:00:00,42.0,42.0,-100.00,SSW,211,10.0,20.0,100,0.02,,,0.29,2.000000,,2013-06-12 13:00:00,
2013-06-12 06:33:00,42.0,42.0,-100.00,SSW,211,10.0,20.0,100,0.02,,,0.29,2.000000,,2013-06-12 13:33:00,
2013-06-12 06:43:00,42.0,42.0,-100.00,SSW,211,10.0,20.0,100,0.02,,,0.29,2.000000,,2013-06-12 13:43:00,
2013-06-12 06:53:00,42.0,42.0,-100.00,SSW,211,10.0,20.0,100,0.02,,,0.29,2.000000,,2013-06-12 13:53:00,
2013-06-12 07:00:00,44.0,44.0,-100.00,SSW,203,9.0,14.0,100,0.02,,,0.31,28.000000,,2013-06-12 14:00:00,
2013-06-12 07:24:00,44.0,44.0,-100.00,SSW,203,9.0,14.0,100,0.02,,,0.31,28.000000,,2013-06-12 14:24:00,
2013-06-12 07:33:00,44.0,44.0,-100.00,SSW,203,9.0,14.0,100,0.02,,,0.31,28.000000,,2013-06-12 14:33:00,
2013-06-12 07:43:00,44.0,44.0,-100.00,SSW,203,9.0,14.0,100,0.02,,,0.31,28.000000,,2013-06-12 14:43:00,
2013-06-12 07:53:00,44.0,44.0,-100.00,SSW,203,9.0,14.0,100,0.02,,,0.31,28.000000,,2013-06-12 14:53:00,
2013-06-12 08:00:00,44.0,44.0,-100.00,SSW,203,10.0,18.0,100,0.04,,,0.35,48.000000,,2013-06-12 15:00:00,
2013-06-12 08:33:00,44.0,44.0,-100.00,SSW,203,10.0,18.0,100,0.04,,,0.35,48.000000,,2013-06-12 15:33:00,
2013-06-12 08:43:00,44.0,44.0,-100.00,SSW,203,10.0,18.0,100,0.04,,,0.35,48.000000,,2013-06-12 15:43:00,
2013-06-12 08:52:00,44.0,44.0,-100.00,SSW,203,10.0,18.0,100,0.04,,,0.35,48.000000,,2013-06-12 15:52:00,
2013-06-12 09:00:00,44.0,44.0,-100.00,SSW,205,10.0,18.0,100,0.00,,,0.34,120.000000,,2013-06-12 16:00:00,
2013-06-12 09:33:00,44.0,44.0,-100.00,SSW,205,10.0,18.0,100,0.00,,,0.34,120.000000,,2013-06-12 16:33:00,
2013-06-12 09:43:00,44.0,44.0,-100.00,SSW,205,10.0,18.0,100,0.00,,,0.34,120.000000,,2013-06-12 16:43:00,
2013-06-12 09:52:00,44.0,44.0,-100.00,SSW,205,10.0,18.0,100,0.00,,,0.34,120.000000,,2013-06-12 16:52:00,
2013-06-12 10:00:00,44.0,44.0,-100.00,SSW,205,9.0,17.0,100,0.02,,,0.36,154.000000,,2013-06-12 17:00:00,
2013-06-12 10:23:00,44.0,44.0,-100.00,SSW,205,9.0,17.0,100,0.02,,,0.36,154.000000,,2013-06-12 17:23:00,
2013-06-12 10:33:00,44.0,44.0,-100.00,SSW,205,9.0,17.0,100,0.02,,,0.36,154.000000,,2013-06-12 17:33:00,
2013-06-12 10:42:00,44.0,44.0,-100.00,SSW,205,9.0,17.0,100,0.02,,,0.36,154.000000,,2013-06-12 17:42:00,
2013-06-12 10:52:00,44.0,44.0,-100.00,SSW,205,9.0,17.0,100,0.02,,,0.36,154.000000,,2013-06-12 17:52:00,
2013-06-12 11:00:00,48.0,48.0,-100.00,SSW,207,7.0,16.0,100,0.01,,,0.37,288.000000,,2013-06-12 18:00:00,
2013-06-12 11:33:00,48.0,48.0,-100.00,SSW,207,7.0,16.0,100,0.01,,,0.37,288.000000,,2013-06-12 18:33:00,
2013-06-12 11:43:00,48.0,48.0,-100.00,SSW,207,7.0,16.0,100,0.01,,,0.37,288.000000,,2013-06-12 18:43:00,
2013-06-12 11:53:00,48.0,48.0,-100.00,SSW,207,7.0,16.0,100,0.01,,,0.37,288.000000,,2013-06-12 18:53:00,
2013-06-12 12:00:00,50.0,50.0,-100.00,SSW,202,7.0,13.0,100,0.00,,,0.36,442.000000,,2013-06-12 19:00:00,
2013-06-12 12:22:00,50.0,50.0,-100.00,SSW,202,7.0,13.0,100,0.00,,,0.36,442.000000,,2013-06-12 19:22:00,
2013-06-12 12:32:00,50.0,50.0,-100.00,SSW,202,7.0,13.0,100,0.00,,,0.36,442.000000,,2013-06-12 19:32:00,
2013-06-12 12:42:00,50.0,50.0,-100.00,SSW,202,7.0,13.0,100,0.00,,,0.36,442.000000,,2013-06-12 19:42:00,
2013-06-12 12:52:00,50.0,50.0,-100.00,SSW,202,7.0,13.0,100,0.00,,,0.36,442.000000,,2013-06-12 19:52:00,
2013-06-12 13:00:00,46.0,46.0,-100.00,SSW,207,8.0,19.0,100,0.07,,,0.42,192.000000,,2013-06-12 20:00:00,
2013-06-12 13:33:00,46.0,46.0,-100.00,SSW,207,8.0,19.0,100,0.07,,,0.42,192.000000,,2013-06-12 20:33:00,
2013-06-12 13:43:00,46.0,46.0,-100.00,SSW,207,8.0,19.0,100,0.07,,,0.42,192.000000,,2013-06-12 20:43:00,
2013-06-12 13:54:00,46.0,46.0,-100.00,SSW,207,8.0,19.0,100,0.07,,,0.42,192.000000,,2013-06-12 20:54:00,
2013-06-12 14:00:00,48.0,48.0,-100.00,SSW,208,8.0,16.0,100,0.02,,,0.42,347.000000,,2013-06-12 21:00:00,
2013-06-12 14:33:00,48.0,48.0,-100.00,SSW,208,8.0,16.0,100,0.02,,,0.42,347.000000,,2013-06-12 21:33:00,
2013-06-12 14:43:00,48.0,48.0,-100.00,SSW,208,8.0,16.0,100,0.02,,,0.42,347.000000,,2013-06-12 21:43:00,
2013-06-12 14:53:00,48.0,48.0,-100.00,SSW,208,8.0,16.0,100,0.02,,,0.42,347.000000,,2013-06-12 21:53:00,
2013-06-12 15:00:00,47.0,47.0,-100.00,SSW,212,8.0,19.0,100,0.01,,,0.43,301.000000,,2013-06-12 22:00:00,
2013-06-12 15:33:00,47.0,47.0,-100.00,SSW,212,8.0,19.0,100,0.01,,,0.43,301.000000,,2013-06-12 22:33:00,
2013-06-12 15:43:00,47.0,47.0,-100.00,SSW,212,8.0,19.0,100,0.01,,,0.43,301.000000,,2013-06-12 22:43:00,
2013-06-12 15:52:00,47.0,47.0,-100.00,SSW,212,8.0,19.0,100,0.01,,,0.43,301.000000,,2013-06-12 22:52:00,
2013-06-12 16:00:00,46.0,46.0,-100.00,SW,214,5.0,13.0,100,0.03,,,0.46,225.000000,,2013-06-12 23:00:00,
2013-06-12 16:32:00,46.0,46.0,-100.00,SW,214,5.0,13.0,100,0.03,,,0.46,225.000000,,2013-06-12 23:32:00,
2013-06-12 16:42:00,46.0,46.0,-100.00,SW,214,5.0,13.0,100,0.03,,,0.46,225.000000,,2013-06-12 23:42:00,
2013-06-12 16:52:00,46.0,46.0,-100.00,SW,214,5.0,13.0,100,0.03,,,0.46,225.000000,,2013-06-12 23:52:00,
2013-06-12 17:00:00,49.0,49.0,-100.00,SSW,207,7.0,14.0,100,0.03,,,0.49,211.000000,,2013-06-13 00:00:00,
2013-06-12 17:33:00,49.0,49.0,-100.00,SSW,207,7.0,14.0,100,0.03,,,0.49,211.000000,,2013-06-13 00:33:00,
2013-06-12 17:43:00,49.0,49.0,-100.00,SSW,207,7.0,14.0,100,0.03,,,0.49,211.000000,,2013-06-13 00:43:00,
2013-06-12 17:52:00,49.0,49.0,-100.00,SSW,207,7.0,14.0,100,0.03,,,0.49,211.000000,,2013-06-13 00:52:00,
2013-06-12 18:00:00,48.0,48.0,-100.00,SSW,212,4.0,12.0,100,0.02,,,0.51,303.000000,,2013-06-13 01:00:00,
2013-06-12 18:33:00,48.0,48.0,-100.00,SSW,212,4.0,12.0,100,0.02,,,0.51,303.000000,,2013-06-13 01:33:00,
2013-06-12 18:43:00,48.0,48.0,-100.00,SSW,212,4.0,12.0,100,0.02,,,0.51,303.000000,,2013-06-13 01:43:00,
2013-06-12 18:53:00,48.0,48.0,-100.00,SSW,212,4.0,12.0,100,0.02,,,0.51,303.000000,,2013-06-13 01:53:00,
2013-06-12 19:00:00,47.0,47.0,-100.00,SSW,209,6.0,9.0,100,0.01,,,0.52,111.000000,,2013-06-13 02:00:00,
2013-06-12 19:33:00,47.0,47.0,-100.00,SSW,209,6.0,9.0,100,0.01,,,0.52,111.000000,,2013-06-13 02:33:00,
2013-06-12 19:43:00,47.0,47.0,-100.00,SSW,209,6.0,9.0,100,0.01,,,0.52,111.000000,,2013-06-13 02:43:00,
2013-06-12 19:52:00,47.0,47.0,-100.00,SSW,209,6.0,9.0,100,0.01,,,0.52,111.000000,,2013-06-13 02:52:00,
2013-06-12 20:00:00,47.0,47.0,-100.00,SSW,209,4.0,10.0,100,0.03,,,0.54,54.000000,,2013-06-13 03:00:00,
2013-06-12 20:22:00,47.0,47.0,-100.00,SSW,209,4.0,10.0,100,0.03,,,0.54,54.000000,,2013-06-13 03:22:00,
2013-06-12 20:33:00,47.0,47.0,-100.00,SSW,209,4.0,10.0,100,0.03,,,0.54,54.000000,,2013-06-13 03:33:00,
2013-06-12 20:43:00,47.0,47.0,-100.00,SSW,209,4.0,10.0,100,0.03,,,0.54,54.000000,,2013-06-13 03:43:00,
2013-06-12 20:52:00,47.0,47.0,-100.00,SSW,209,4.0,10.0,100,0.03,,,0.54,54.000000,,2013-06-13 03:52:00,
2013-06-12 21:00:00,45.0,45.0,-100.00,SSW,211,6.0,10.0,100,0.00,,,0.48,65.000000,,2013-06-13 04:00:00,
2013-06-12 21:33:00,45.0,45.0,-100.00,SSW,211,6.0,10.0,100,0.00,,,0.48,65.000000,,2013-06-13 04:33:00,
2013-06-12 21:43:00,45.0,45.0,-100.00,SSW,211,6.0,10.0,100,0.00,,,0.48,65.000000,,2013-06-13 04:43:00,
2013-06-12 21:53:00,45.0,45.0,-100.00,SSW,211,6.0,10.0,100,0.00,,,0.48,65.000000,,2013-06-13 04:53:00,
2013-06-12 22:00:00,45.0,45.0,-100.00,SW,215,8.0,11.0,100,0.00,,,0.44,6.000000,,2013-06-13 05:00:00,
2013-06-12 22:33:00,45.0,45.0,-100.00,SW,215,8.0,11.0,100,0.00,,,0.44,6.000000,,2013-06-13 05:33:00,
2013-06-12 22:43:00,45.0,45.0,-100.00,SW,215,8.0,11.0,100,0.00,,,0.44,6.000000,,2013-06-13 05:43:00,
2013-06-12 22:53:00,45.0,45.0,-100.00,SW,215,8.0,11.0,100,0.00,,,0.44,6.000000,,2013-06-13 05:53:00,
2013-06-12 23:00:00,45.0,45.0,-100.00,SSW,213,6.0,9.0,100,0.01,,,0.44,0.000000,,2013-06-13 06:00:00,
2013-06-12 23:33:00,45.0,45.0,-100.00,SSW,213,6.0,9.0,100,0.01,,,0.44,0.000000,,2013-06-13 06:33:00,
2013-06-12 23:44:00,45.0,45.0,-100.00,SSW,213,6.0,9.0,100,0.01,,,0.44,0.000000,,2013-06-13 06:44:00,
2013-06-12 23:52:00,45.0,45.0,-100.00,SSW,213,6.0,9.0,100,0.01,,,0.44,0.000000,,2013-06-13 06:52:00,